Time;durP1;ratioP1;P1;durP2;ratioP2;P2;SDS_P1;SDS_P2;PMS_P1;PMS_P2;Temp;Humidity;BMP_temperature;BMP_pressure;BME280_temperature;BME280_humidity;BME280_pressure;Samples;Min_cycle;Max_cycle;Signal;HPM_P1;HPM_P2
2021/07/15 00:00:31;;;;;;;22.67;17.23;;;15.00;99.90;;;;;;5015120;28;19928;-84
2021/07/15 00:03:04;;;;;;;28.00;17.88;;;15.00;99.90;;;;;;5032820;28;20100;-83
2021/07/15 00:05:32;;;;;;;22.35;16.90;;;15.10;99.90;;;;;;5014369;28;20052;-83
2021/07/15 00:08:00;;;;;;;27.63;19.08;;;15.10;99.90;;;;;;5013178;28;20049;-83
2021/07/15 00:10:35;;;;;;;26.87;17.63;;;15.10;99.90;;;;;;5033157;28;20053;-83
2021/07/15 00:13:03;;;;;;;24.73;18.80;;;15.20;99.90;;;;;;5011854;28;20284;-83
2021/07/15 00:15:33;;;;;;;;;;;15.20;99.90;;;;;;5004171;28;20472;-84
2021/07/15 00:18:00;;;;;;;26.15;18.25;;;15.30;99.90;;;;;;5029826;28;19921;-83
2021/07/15 00:20:27;;;;;;;22.83;18.45;;;15.20;99.90;;;;;;5010328;28;20463;-83
2021/07/15 00:22:54;;;;;;;24.75;18.60;;;15.30;99.90;;;;;;5014242;28;20479;-84
2021/07/15 00:25:22;;;;;;;25.65;18.30;;;15.30;99.90;;;;;;5012360;28;20037;-84
2021/07/15 00:27:49;;;;;;;26.00;19.23;;;15.30;99.90;;;;;;5013500;28;20096;-83
2021/07/15 00:30:16;;;;;;;28.20;19.88;;;15.40;99.90;;;;;;5023263;28;20049;-83
2021/07/15 00:32:44;;;;;;;28.35;19.70;;;15.40;99.90;;;;;;5016535;28;20049;-83
2021/07/15 00:35:12;;;;;;;26.30;19.67;;;15.40;99.90;;;;;;5013823;28;20387;-84
2021/07/15 00:37:39;;;;;;;24.65;18.85;;;15.40;99.90;;;;;;5031418;28;20052;-83
2021/07/15 00:40:09;;;;;;;26.10;19.42;;;15.40;99.90;;;;;;5030273;28;20046;-83
2021/07/15 00:42:36;;;;;;;24.95;19.52;;;15.50;99.90;;;;;;5012508;28;20049;-84
2021/07/15 00:45:09;;;;;;;28.10;19.35;;;15.50;99.90;;;;;;5014875;28;20060;-84
2021/07/15 00:47:36;;;;;;;24.55;19.25;;;15.50;99.90;;;;;;5030407;28;20041;-83
2021/07/15 00:50:06;;;;;;;26.20;18.48;;;15.50;99.90;;;;;;5015104;28;20041;-84
2021/07/15 00:52:34;;;;;;;28.08;19.48;;;15.50;99.90;;;;;;5015034;28;20049;-84
2021/07/15 00:55:03;;;;;;;27.40;19.13;;;15.60;99.90;;;;;;5011066;28;20038;-84
2021/07/15 00:57:30;;;;;;;27.15;18.95;;;15.50;99.90;;;;;;5013716;28;20052;-83
2021/07/15 00:59:57;;;;;;;26.50;19.35;;;15.50;99.90;;;;;;5015969;28;20053;-84
2021/07/15 01:02:24;;;;;;;27.83;19.77;;;15.50;99.90;;;;;;5000085;28;20479;-84
2021/07/15 01:04:51;;;;;;;25.23;18.52;;;15.60;99.90;;;;;;5007715;28;20132;-84
2021/07/15 01:07:19;;;;;;;27.63;18.75;;;15.50;99.90;;;;;;5011806;28;20048;-83
2021/07/15 01:09:46;;;;;;;24.20;18.17;;;15.50;99.90;;;;;;5031259;28;20128;-84
2021/07/15 01:12:32;;;;;;;26.10;19.40;;;15.50;99.90;;;;;;5012943;28;20072;-84
2021/07/15 01:15:14;;;;;;;30.02;18.67;;;15.50;99.90;;;;;;5010990;28;20568;-83
2021/07/15 01:17:57;;;;;;;23.02;18.17;;;15.50;99.90;;;;;;5031968;28;20048;-84
2021/07/15 01:20:59;;;;;;;23.67;18.92;;;15.50;99.90;;;;;;5012591;28;20499;-83
2021/07/15 01:23:53;;;;;;;29.27;18.52;;;15.50;99.90;;;;;;5020222;28;20045;-83
2021/07/15 01:26:42;;;;;;;22.10;17.40;;;15.40;99.90;;;;;;5012281;28;20041;-84
2021/07/15 01:29:17;;;;;;;27.25;18.00;;;15.40;99.90;;;;;;5031065;28;20406;-83
2021/07/15 01:31:50;;;;;;;26.10;18.33;;;15.40;99.90;;;;;;5012664;28;20446;-85
2021/07/15 01:34:21;;;;;;;25.70;17.63;;;15.40;99.90;;;;;;5011990;28;20049;-84
2021/07/15 01:36:51;;;;;;;21.90;16.67;;;15.30;99.90;;;;;;5013070;28;20068;-84
2021/07/15 01:39:22;;;;;;;20.67;16.13;;;15.20;99.90;;;;;;5012221;28;20049;-83
2021/07/15 01:41:52;;;;;;;18.92;15.07;;;15.30;99.90;;;;;;5031752;28;20070;-84
2021/07/15 01:44:28;;;;;;;18.23;14.20;;;15.20;99.90;;;;;;5012787;28;20042;-84
2021/07/15 01:46:56;;;;;;;18.73;13.38;;;15.20;99.90;;;;;;5013634;28;20052;-83
2021/07/15 01:49:24;;;;;;;20.40;13.65;;;15.20;99.90;;;;;;5040067;28;20392;-84
2021/07/15 01:51:54;;;;;;;20.40;13.48;;;15.20;99.90;;;;;;5031489;28;20056;-83
2021/07/15 01:54:22;;;;;;;18.35;13.75;;;15.20;99.90;;;;;;5036919;28;20119;-84
2021/07/15 01:56:50;;;;;;;16.00;13.27;;;15.20;99.90;;;;;;5014449;28;20509;-84
2021/07/15 01:59:21;;;;;;;23.58;14.18;;;15.20;99.90;;;;;;5011698;28;20391;-84
2021/07/15 02:01:51;;;;;;;17.17;14.32;;;15.20;99.90;;;;;;5011914;28;20053;-84
2021/07/15 02:04:19;;;;;;;20.40;14.63;;;15.10;99.90;;;;;;5012046;28;20045;-84
2021/07/15 02:06:49;;;;;;;16.98;14.68;;;15.10;99.90;;;;;;5023417;28;20053;-83
2021/07/15 02:09:17;;;;;;;21.80;14.57;;;15.10;99.90;;;;;;5017063;28;20053;-84
2021/07/15 02:11:48;;;;;;;21.05;14.95;;;15.10;99.90;;;;;;5032609;28;20048;-84
2021/07/15 02:14:16;;;;;;;19.02;15.02;;;15.10;99.90;;;;;;5017475;28;20100;-83
2021/07/15 02:16:47;;;;;;;23.23;14.60;;;15.10;99.90;;;;;;5020056;28;20052;-84
2021/07/15 02:19:15;;;;;;;17.65;14.15;;;15.00;99.90;;;;;;5035191;28;20051;-84
2021/07/15 02:21:42;;;;;;;19.23;14.05;;;15.00;99.90;;;;;;5016875;28;20044;-84
2021/07/15 02:24:12;;;;;;;21.63;14.90;;;15.00;99.90;;;;;;5015046;28;20045;-83
2021/07/15 02:26:40;;;;;;;22.10;15.40;;;15.00;99.90;;;;;;5033907;28;20042;-83
2021/07/15 02:29:07;;;;;;;20.13;15.95;;;15.00;99.90;;;;;;5015657;28;20050;-84
2021/07/15 02:31:44;;;;;;;23.08;15.82;;;14.90;99.90;;;;;;5016150;28;20045;-83
2021/07/15 02:34:39;;;;;;;21.95;15.85;;;14.90;99.90;;;;;;5015287;28;20494;-84
2021/07/15 02:37:07;;;;;;;23.67;16.10;;;14.90;99.90;;;;;;5008512;28;20069;-84
2021/07/15 02:39:34;;;;;;;21.27;15.10;;;14.90;99.90;;;;;;5034184;28;20099;-84
2021/07/15 02:42:01;;;;;;;20.67;15.55;;;14.90;99.90;;;;;;5017091;28;20076;-84
2021/07/15 02:44:28;;;;;;;16.75;15.05;;;14.80;99.90;;;;;;5014852;28;20041;-84
2021/07/15 02:46:55;;;;;;;18.25;14.82;;;14.80;99.90;;;;;;5016405;28;20057;-83
2021/07/15 02:49:21;;;;;;;18.85;15.02;;;14.80;99.90;;;;;;5015617;28;20042;-83
2021/07/15 02:51:48;;;;;;;21.38;16.45;;;14.80;99.90;;;;;;5016253;28;21618;-83
2021/07/15 02:54:16;;;;;;;21.50;14.45;;;14.80;99.90;;;;;;5021537;28;20453;-83
2021/07/15 02:57:09;;;;;;;16.77;14.68;;;14.80;99.90;;;;;;5014572;28;20041;-84
2021/07/15 02:59:43;;;;;;;15.77;14.10;;;14.70;99.90;;;;;;5030830;28;20041;-83
2021/07/15 03:02:21;;;;;;;24.83;15.15;;;14.70;99.90;;;;;;5030972;28;20115;-83
2021/07/15 03:05:07;;;;;;;22.13;16.15;;;14.70;99.90;;;;;;5029868;28;20053;-83
2021/07/15 03:07:42;;;;;;;20.50;14.13;;;14.70;99.90;;;;;;5034388;28;20055;-83
2021/07/15 03:10:10;;;;;;;17.73;14.88;;;14.70;99.90;;;;;;5013873;28;20053;-83
2021/07/15 03:12:40;;;;;;;16.50;14.20;;;14.70;99.90;;;;;;5031680;28;20044;-84
2021/07/15 03:15:08;;;;;;;20.02;13.55;;;14.70;99.90;;;;;;5018704;28;20299;-84
2021/07/15 03:17:38;;;;;;;21.53;13.43;;;14.70;99.90;;;;;;5015114;28;20045;-83
2021/07/15 03:20:30;;;;;;;20.15;13.82;;;14.70;99.90;;;;;;5015921;28;20046;-83
2021/07/15 03:23:04;;;;;;;19.92;13.05;;;14.70;99.90;;;;;;5032212;28;20038;-84
2021/07/15 03:25:32;;;;;;;19.80;13.32;;;14.70;99.90;;;;;;5018051;28;20479;-84
2021/07/15 03:28:02;;;;;;;15.63;12.30;;;14.70;99.90;;;;;;5015397;28;20056;-83
2021/07/15 03:30:30;;;;;;;16.75;11.93;;;14.70;99.90;;;;;;5014686;28;20041;-84
2021/07/15 03:32:58;;;;;;;15.57;11.73;;;14.70;99.90;;;;;;5020037;28;20464;-84
2021/07/15 03:35:27;;;;;;;16.35;11.90;;;14.70;99.90;;;;;;5021649;28;20069;-83
2021/07/15 03:37:56;;;;;;;17.55;11.05;;;14.70;99.90;;;;;;5014294;28;20045;-83
2021/07/15 03:40:23;;;;;;;;;;;14.70;99.90;;;;;;5013552;28;20056;-84
2021/07/15 03:42:52;;;;;;;13.07;10.20;;;14.70;99.90;;;;;;5015460;28;19921;-83
2021/07/15 03:45:21;;;;;;;13.90;10.00;;;14.60;99.90;;;;;;5030480;28;20059;-83
2021/07/15 03:47:49;;;;;;;;;;;14.60;99.90;;;;;;5000630;28;20079;-83
2021/07/15 03:50:20;;;;;;;15.40;10.30;;;14.60;99.90;;;;;;5016468;28;19936;-84
2021/07/15 03:52:50;;;;;;;15.68;11.05;;;14.60;99.90;;;;;;5032746;28;20037;-84
2021/07/15 03:55:24;;;;;;;14.07;10.65;;;14.60;99.90;;;;;;5017938;28;20063;-83
2021/07/15 03:57:53;;;;;;;13.50;11.38;;;14.50;99.90;;;;;;5033119;28;20494;-83
2021/07/15 04:00:24;;;;;;;17.30;11.07;;;14.50;99.90;;;;;;5028751;28;20084;-84
2021/07/15 04:02:56;;;;;;;14.32;10.50;;;14.50;99.90;;;;;;5033372;28;20052;-84
2021/07/15 04:05:25;;;;;;;12.23;9.60;;;14.50;99.90;;;;;;5019181;28;20045;-84
2021/07/15 04:07:55;;;;;;;15.32;10.52;;;14.50;99.90;;;;;;5031593;28;20132;-83
2021/07/15 04:10:22;;;;;;;11.93;9.70;;;14.50;99.90;;;;;;5029134;28;20128;-83
2021/07/15 04:12:51;;;;;;;16.45;9.93;;;14.50;99.90;;;;;;5014886;28;20144;-83
2021/07/15 04:15:19;;;;;;;19.35;11.55;;;14.40;99.90;;;;;;5031386;28;20132;-83
2021/07/15 04:17:59;;;;;;;16.80;11.07;;;14.40;99.90;;;;;;5017476;28;20052;-83
2021/07/15 04:20:28;;;;;;;12.90;10.77;;;14.50;99.90;;;;;;5029423;28;20068;-83
2021/07/15 04:22:59;;;;;;;16.92;11.55;;;14.40;99.90;;;;;;5018417;28;20049;-84
2021/07/15 04:25:27;;;;;;;13.93;10.82;;;14.40;99.90;;;;;;5013787;28;20076;-84
2021/07/15 04:28:02;;;;;;;17.67;10.30;;;14.40;99.90;;;;;;5029004;28;20079;-84
2021/07/15 04:30:29;;;;;;;16.50;11.30;;;14.40;99.90;;;;;;5012731;28;20049;-83
2021/07/15 04:33:05;;;;;;;17.10;11.05;;;14.40;99.90;;;;;;5013878;28;20041;-84
2021/07/15 04:35:34;;;;;;;15.65;10.20;;;14.40;99.90;;;;;;5031568;28;20037;-84
2021/07/15 04:38:04;;;;;;;14.40;10.07;;;14.40;99.90;;;;;;5013865;28;20056;-84
2021/07/15 04:40:33;;;;;;;15.85;9.68;;;14.40;99.90;;;;;;5032348;28;20041;-84
2021/07/15 04:43:04;;;;;;;13.75;9.95;;;14.40;99.90;;;;;;5011279;28;20053;-83
2021/07/15 04:45:33;;;;;;;11.15;9.77;;;14.40;99.90;;;;;;4995752;28;20072;-84
2021/07/15 04:48:00;;;;;;;;;;;14.30;99.90;;;;;;5015308;28;20049;-83
2021/07/15 04:50:30;;;;;;;13.30;9.15;;;14.40;99.90;;;;;;5017312;28;19921;-84
2021/07/15 04:53:10;;;;;;;13.05;10.07;;;14.30;99.90;;;;;;5018723;28;20053;-84
2021/07/15 04:55:39;;;;;;;13.07;9.25;;;14.30;99.90;;;;;;5024448;28;20044;-84
2021/07/15 04:58:07;;;;;;;8.82;7.82;;;14.30;99.90;;;;;;5017562;28;20033;-83
2021/07/15 05:00:34;;;;;;;10.05;7.63;;;14.30;99.90;;;;;;5009313;28;20053;-84
2021/07/15 05:03:41;;;;;;;9.83;8.03;;;14.40;99.90;;;;;;5037211;28;20132;-83
2021/07/15 05:06:09;;;;;;;12.52;8.05;;;14.30;99.90;;;;;;4946650;29;20051;-84
2021/07/15 05:08:39;;;;;;;10.85;8.30;;;14.40;99.90;;;;;;4939477;28;20046;-83
2021/07/15 05:11:07;;;;;;;11.20;9.10;;;14.30;99.90;;;;;;4938797;29;20058;-84
2021/07/15 05:13:36;;;;;;;11.85;9.30;;;14.40;99.90;;;;;;4931234;29;20043;-83
2021/07/15 05:16:03;;;;;;;11.63;8.10;;;14.40;99.90;;;;;;4940262;29;20433;-84
2021/07/15 05:18:31;;;;;;;10.43;7.78;;;14.40;99.90;;;;;;4952259;28;20102;-84
2021/07/15 05:20:58;;;;;;;10.20;8.02;;;14.40;99.90;;;;;;4952014;29;20477;-84
2021/07/15 05:23:26;;;;;;;10.15;7.30;;;14.40;99.90;;;;;;4934014;29;20066;-84
2021/07/15 05:25:54;;;;;;;9.90;7.75;;;14.50;99.90;;;;;;4949754;28;20090;-84
2021/07/15 05:28:21;;;;;;;11.68;7.13;;;14.50;99.90;;;;;;4935660;29;20050;-86
2021/07/15 05:30:51;;;;;;;11.32;7.07;;;14.50;99.90;;;;;;4934975;29;20047;-84
2021/07/15 05:33:18;;;;;;;9.13;7.28;;;14.60;99.90;;;;;;4950357;28;20051;-84
2021/07/15 05:35:45;;;;;;;14.32;6.85;;;14.60;99.90;;;;;;4918826;29;20151;-84
2021/07/15 05:38:12;;;;;;;9.70;7.32;;;14.60;99.90;;;;;;4915989;29;20425;-84
2021/07/15 05:40:39;;;;;;;10.80;7.05;;;14.70;99.90;;;;;;4932332;28;20066;-84
2021/07/15 05:43:07;;;;;;;7.65;6.68;;;14.80;99.90;;;;;;4991197;28;20046;-84
2021/07/15 05:45:34;;;;;;;10.15;6.47;;;14.80;99.90;;;;;;4991049;28;20080;-84
2021/07/15 05:48:01;;;;;;;7.00;6.30;;;14.90;99.90;;;;;;5011239;28;20056;-83
2021/07/15 05:50:28;;;;;;;7.30;6.18;;;14.90;99.90;;;;;;4993981;28;20053;-84
2021/07/15 05:52:55;;;;;;;9.98;5.93;;;15.00;99.90;;;;;;4990223;28;20054;-84
2021/07/15 05:55:22;;;;;;;7.28;5.90;;;15.00;99.90;;;;;;4998892;28;20046;-83
2021/07/15 05:57:49;;;;;;;9.02;5.40;;;15.10;99.90;;;;;;4994788;28;20059;-84
2021/07/15 06:00:16;;;;;;;7.03;5.40;;;15.20;99.90;;;;;;4989534;28;20054;-83
2021/07/15 06:02:43;;;;;;;6.35;5.57;;;15.30;99.90;;;;;;5002036;28;20049;-83
2021/07/15 06:05:25;;;;;;;8.10;6.32;;;15.30;99.90;;;;;;5014270;28;20388;-84
2021/07/15 06:07:52;;;;;;;7.90;5.75;;;15.40;99.90;;;;;;5010661;28;20042;-84
2021/07/15 06:10:20;;;;;;;9.48;6.10;;;15.40;99.90;;;;;;5008185;28;20042;-83
2021/07/15 06:12:47;;;;;;;7.28;5.65;;;15.50;99.90;;;;;;4992437;28;20488;-84
2021/07/15 06:15:14;;;;;;;8.23;5.07;;;15.60;99.90;;;;;;5006872;28;20042;-84
2021/07/15 06:17:43;;;;;;;6.55;5.53;;;15.70;99.90;;;;;;5012490;28;20052;-83
2021/07/15 06:20:14;;;;;;;6.45;5.80;;;15.80;99.90;;;;;;4993095;28;20049;-84
2021/07/15 06:22:42;;;;;;;10.13;5.72;;;15.80;99.90;;;;;;4996379;28;20050;-84
2021/07/15 06:25:10;;;;;;;8.07;4.97;;;15.90;99.90;;;;;;4994563;28;20044;-84
2021/07/15 06:27:38;;;;;;;8.57;4.68;;;15.90;99.90;;;;;;5007439;28;20289;-83
2021/07/15 06:30:07;;;;;;;6.00;5.05;;;16.00;99.90;;;;;;5008707;28;20597;-84
2021/07/15 06:32:35;;;;;;;9.98;5.43;;;16.00;99.90;;;;;;5001503;28;20129;-84
2021/07/15 06:35:04;;;;;;;5.43;4.78;;;16.00;99.90;;;;;;5016491;28;20045;-84
2021/07/15 06:37:39;;;;;;;8.07;5.57;;;15.90;99.90;;;;;;4987688;28;20064;-84
2021/07/15 06:40:09;;;;;;;6.90;5.47;;;16.00;99.90;;;;;;4988596;28;20043;-83
2021/07/15 06:42:36;;;;;;;5.93;4.95;;;16.00;99.90;;;;;;4993481;28;20121;-83
2021/07/15 06:45:06;;;;;;;5.55;5.03;;;16.10;99.90;;;;;;5010699;28;20057;-84
2021/07/15 06:47:34;;;;;;;5.40;4.90;;;16.20;99.90;;;;;;5014170;28;20057;-83
2021/07/15 06:50:02;;;;;;;6.95;4.50;;;16.20;99.90;;;;;;5013879;28;20053;-83
2021/07/15 06:52:30;;;;;;;6.07;4.75;;;16.30;99.90;;;;;;4991051;28;20049;-84
2021/07/15 06:55:00;;;;;;;6.85;5.03;;;16.40;99.90;;;;;;5012944;28;20064;-83
2021/07/15 06:57:28;;;;;;;4.97;4.30;;;16.50;99.90;;;;;;4999517;28;20053;-84
2021/07/15 06:59:55;;;;;;;4.45;3.50;;;16.60;99.90;;;;;;4996626;28;20515;-84
2021/07/15 07:02:23;;;;;;;9.82;4.32;;;16.60;99.90;;;;;;5011320;28;20048;-84
2021/07/15 07:04:50;;;;;;;4.82;3.58;;;16.60;99.90;;;;;;5028099;28;20068;-84
2021/07/15 07:07:17;;;;;;;3.97;3.47;;;16.70;99.90;;;;;;5011526;28;20042;-84
2021/07/15 07:09:44;;;;;;;4.93;3.75;;;16.90;99.90;;;;;;5021760;28;20104;-83
2021/07/15 07:12:11;;;;;;;5.10;3.80;;;17.00;99.90;;;;;;5020483;28;20049;-84
2021/07/15 07:14:38;;;;;;;5.03;3.90;;;17.10;99.90;;;;;;5020324;28;20046;-84
2021/07/15 07:17:05;;;;;;;4.22;3.72;;;17.30;99.90;;;;;;5001877;28;20045;-84
2021/07/15 07:19:32;;;;;;;4.60;3.63;;;17.40;99.90;;;;;;5021627;28;20042;-83
2021/07/15 07:21:59;;;;;;;6.32;4.97;;;17.40;99.90;;;;;;5001604;28;20046;-84
2021/07/15 07:24:25;;;;;;;5.22;4.00;;;17.40;99.90;;;;;;5002763;28;20049;-84
2021/07/15 07:26:52;;;;;;;4.65;3.92;;;17.50;99.90;;;;;;5003490;28;20057;-83
2021/07/15 07:29:19;;;;;;;4.43;4.03;;;17.60;99.90;;;;;;5002920;28;20045;-83
2021/07/15 07:31:46;;;;;;;4.15;3.75;;;17.70;99.90;;;;;;5003744;28;20494;-83
2021/07/15 07:34:16;;;;;;;5.03;3.88;;;17.90;99.90;;;;;;4993339;28;20069;-83
2021/07/15 07:36:43;;;;;;;5.00;4.13;;;18.00;99.90;;;;;;5014430;28;20042;-83
2021/07/15 07:39:11;;;;;;;4.32;3.75;;;18.10;99.90;;;;;;4995090;28;20083;-83
2021/07/15 07:41:38;;;;;;;5.78;4.18;;;18.20;99.90;;;;;;4991563;28;20046;-83
2021/07/15 07:44:05;;;;;;;5.03;4.50;;;18.10;99.90;;;;;;5013207;28;20056;-83
2021/07/15 07:46:33;;;;;;;6.55;4.88;;;18.10;99.90;;;;;;5010465;28;20468;-83
2021/07/15 07:49:00;;;;;;;6.25;5.38;;;17.90;99.90;;;;;;4977175;28;20049;-83
2021/07/15 07:51:30;;;;;;;5.82;5.00;;;17.80;99.90;;;;;;4993094;28;20050;-83
2021/07/15 07:53:57;;;;;;;5.30;4.80;;;17.80;99.90;;;;;;4993082;28;20054;-84
2021/07/15 07:56:25;;;;;;;5.63;5.10;;;17.80;99.90;;;;;;4984975;28;20054;-83
2021/07/15 07:58:52;;;;;;;5.00;4.43;;;17.90;99.90;;;;;;4989372;28;20046;-84
2021/07/15 08:01:19;;;;;;;4.88;4.45;;;18.00;99.90;;;;;;5013152;28;20362;-84
2021/07/15 08:03:46;;;;;;;7.03;5.18;;;18.00;99.90;;;;;;5004525;28;20053;-84
2021/07/15 08:06:14;;;;;;;5.20;4.75;;;18.10;99.90;;;;;;4981485;28;20507;-83
2021/07/15 08:08:41;;;;;;;5.77;5.17;;;18.20;99.90;;;;;;4989912;28;20125;-83
2021/07/15 08:11:08;;;;;;;5.60;5.10;;;18.30;99.90;;;;;;4983707;28;20294;-83
2021/07/15 08:13:35;;;;;;;5.38;4.68;;;18.50;99.90;;;;;;4992586;28;20076;-84
2021/07/15 08:16:03;;;;;;;5.70;5.10;;;18.40;99.90;;;;;;5024723;28;20054;-83
2021/07/15 08:18:30;;;;;;;5.78;5.18;;;18.30;99.90;;;;;;5007071;28;20046;-83
2021/07/15 08:20:57;;;;;;;5.80;5.28;;;18.30;99.90;;;;;;5010202;28;20042;-83
2021/07/15 08:23:24;;;;;;;7.50;5.20;;;18.30;99.90;;;;;;4989186;28;20412;-83
2021/07/15 08:25:52;;;;;;;5.72;5.03;;;18.30;99.90;;;;;;4997736;28;20049;-83
2021/07/15 08:28:19;;;;;;;6.87;4.37;;;18.30;99.90;;;;;;5009984;28;20042;-84
2021/07/15 08:30:46;;;;;;;6.63;4.75;;;18.30;99.90;;;;;;5014408;28;20057;-83
2021/07/15 08:33:14;;;;;;;4.60;4.22;;;18.50;99.90;;;;;;4995639;28;20128;-84
2021/07/15 08:35:41;;;;;;;5.50;4.03;;;18.60;99.90;;;;;;5003764;28;20094;-83
2021/07/15 08:38:09;;;;;;;4.28;3.88;;;18.80;99.90;;;;;;5031787;28;20060;-84
2021/07/15 08:40:37;;;;;;;5.43;4.15;;;19.00;99.90;;;;;;5028307;28;20037;-84
2021/07/15 08:43:06;;;;;;;5.22;4.15;;;19.10;99.90;;;;;;5013122;28;20065;-84
2021/07/15 08:45:35;;;;;;;;;;;19.20;99.90;;;;;;4999588;28;20052;-83
2021/07/15 08:48:06;;;;;;;4.85;3.40;;;19.50;99.90;;;;;;5009875;28;20304;-84
2021/07/15 08:50:34;;;;;;;5.43;3.90;;;19.80;99.90;;;;;;5002777;28;20449;-83
2021/07/15 08:53:01;;;;;;;4.32;3.92;;;20.10;99.90;;;;;;5009330;28;20049;-83
2021/07/15 08:58:19;;;;;;;4.68;4.25;;;20.10;99.90;;;;;;5032411;28;20045;-83
2021/07/15 09:00:48;;;;;;;6.93;4.32;;;20.00;99.90;;;;;;5013605;28;20045;-84
2021/07/15 09:03:15;;;;;;;5.20;4.43;;;19.80;99.90;;;;;;5028019;28;20100;-83
2021/07/15 09:05:42;;;;;;;5.55;4.75;;;19.70;99.90;;;;;;5031336;28;20049;-83
2021/07/15 09:08:13;;;;;;;5.22;4.60;;;19.60;99.90;;;;;;5017671;28;20045;-84
2021/07/15 09:10:40;;;;;;;6.32;5.43;;;19.50;99.90;;;;;;5014983;28;20415;-84
2021/07/15 09:13:08;;;;;;;7.25;5.38;;;19.60;99.90;;;;;;5007859;28;20083;-84
2021/07/15 09:15:35;;;;;;;6.93;4.90;;;19.70;99.90;;;;;;5027413;28;20373;-84
2021/07/15 09:18:11;;;;;;;5.60;4.82;;;19.60;99.90;;;;;;5031338;28;20050;-83
2021/07/15 09:20:39;;;;;;;6.22;4.45;;;19.60;99.90;;;;;;5018200;28;20075;-84
2021/07/15 09:23:08;;;;;;;6.10;4.70;;;19.70;99.90;;;;;;5016451;28;20496;-84
2021/07/15 09:25:38;;;;;;;5.10;4.45;;;19.90;99.90;;;;;;5017977;28;20056;-84
2021/07/15 09:28:12;;;;;;;7.70;4.82;;;20.00;99.90;;;;;;5014061;28;20049;-84
2021/07/15 09:30:44;;;;;;;5.20;4.70;;;20.00;99.90;;;;;;5020494;28;20064;-84
2021/07/15 09:33:13;;;;;;;4.82;4.32;;;19.90;99.90;;;;;;5031098;28;20395;-84
2021/07/15 09:35:47;;;;;;;4.90;4.50;;;19.80;99.90;;;;;;5030964;28;20451;-84
2021/07/15 09:38:19;;;;;;;7.90;4.38;;;19.80;99.90;;;;;;5014206;28;20053;-84
2021/07/15 09:41:00;;;;;;;5.60;4.00;;;19.90;99.90;;;;;;5030245;28;20048;-84
2021/07/15 09:43:32;;;;;;;5.82;4.55;;;20.10;99.90;;;;;;5012684;28;20139;-84
2021/07/15 09:46:20;;;;;;;5.78;4.22;;;20.10;99.90;;;;;;5014415;28;20064;-84
2021/07/15 09:48:50;;;;;;;5.93;4.70;;;20.10;99.90;;;;;;5029021;28;20061;-84
2021/07/15 09:51:18;;;;;;;7.20;4.40;;;20.00;99.90;;;;;;5030564;28;20049;-84
2021/07/15 09:53:46;;;;;;;6.97;5.00;;;20.00;99.90;;;;;;5012800;28;20099;-83
2021/07/15 09:56:16;;;;;;;4.88;4.18;;;20.00;99.90;;;;;;5011234;28;20056;-84
2021/07/15 09:58:50;;;;;;;7.03;4.90;;;19.90;99.90;;;;;;5029746;28;20045;-84
2021/07/15 10:01:24;;;;;;;7.32;4.78;;;20.10;99.90;;;;;;5028382;28;20049;-84
2021/07/15 10:03:54;;;;;;;5.65;4.97;;;20.30;99.90;;;;;;5011722;28;20073;-83
2021/07/15 10:06:22;;;;;;;5.00;4.50;;;20.30;99.90;;;;;;5012148;28;20046;-84
2021/07/15 10:08:54;;;;;;;6.18;4.57;;;20.40;99.90;;;;;;5013001;28;20049;-84
2021/07/15 10:11:28;;;;;;;5.20;4.05;;;20.30;99.90;;;;;;5027783;28;20368;-84
2021/07/15 10:14:10;;;;;;;6.45;4.47;;;20.30;99.90;;;;;;5009377;28;20041;-84
2021/07/15 10:16:39;;;;;;;6.07;4.28;;;20.40;99.90;;;;;;5025112;28;20045;-84
2021/07/15 10:19:09;;;;;;;5.70;4.20;;;20.40;99.90;;;;;;5010457;28;20491;-84
2021/07/15 10:21:36;;;;;;;4.03;3.63;;;20.40;99.90;;;;;;5023368;28;20053;-84
2021/07/15 10:24:20;;;;;;;6.32;4.22;;;20.50;99.90;;;;;;5014343;28;20095;-84
2021/07/15 10:26:50;;;;;;;5.00;3.50;;;20.60;99.90;;;;;;5012018;28;20390;-84
2021/07/15 10:29:18;;;;;;;4.47;3.55;;;20.70;99.90;;;;;;5010531;28;20513;-84
2021/07/15 10:31:47;;;;;;;3.83;3.43;;;20.60;99.90;;;;;;5009891;28;20435;-84
2021/07/15 10:34:15;;;;;;;5.03;3.90;;;20.60;99.90;;;;;;5014000;28;20133;-84
2021/07/15 10:36:43;;;;;;;5.22;3.15;;;20.80;99.90;;;;;;5014808;28;20041;-84
2021/07/15 10:39:13;;;;;;;5.13;3.03;;;20.90;99.90;;;;;;5027765;28;20475;-83
2021/07/15 10:41:46;;;;;;;3.65;2.90;;;20.90;99.90;;;;;;5017682;28;20049;-84
2021/07/15 10:44:13;;;;;;;4.82;3.42;;;21.00;99.90;;;;;;5018157;28;20049;-84
2021/07/15 10:46:41;;;;;;;4.75;2.88;;;21.20;99.90;;;;;;5014442;28;20048;-84
2021/07/15 10:49:22;;;;;;;4.30;2.83;;;21.20;99.90;;;;;;5029452;28;20045;-84
2021/07/15 10:51:50;;;;;;;;;;;21.30;99.90;;;;;;5029674;28;20045;-84
2021/07/15 10:54:18;;;;;;;3.70;2.38;;;21.50;99.90;;;;;;5027852;28;19928;-84
2021/07/15 10:56:49;;;;;;;3.58;2.95;;;21.80;99.90;;;;;;5028547;28;20041;-84
2021/07/15 10:59:31;;;;;;;4.13;3.30;;;22.00;99.90;;;;;;5009625;28;20479;-83
2021/07/15 11:02:00;;;;;;;5.30;3.28;;;22.00;99.90;;;;;;5011537;28;20099;-83
2021/07/15 11:04:34;;;;;;;5.05;2.80;;;21.90;99.90;;;;;;5011651;28;20108;-82
2021/07/15 11:07:15;;;;;;;5.07;2.65;;;21.80;99.90;;;;;;5014197;28;20049;-81
2021/07/15 11:09:42;;;;;;;3.78;2.20;;;21.70;99.90;;;;;;5026455;28;20479;-82
2021/07/15 11:12:32;;;;;;;3.85;2.90;;;21.70;99.90;;;;;;5011911;28;20045;-83
2021/07/15 11:15:11;;;;;;;4.63;3.72;;;21.90;99.90;;;;;;5030288;28;20049;-83
2021/07/15 11:17:46;;;;;;;;;;;21.90;99.90;;;;;;5011816;28;20438;-83
2021/07/15 11:20:31;;;;;;;7.00;3.85;;;21.80;99.90;;;;;;5010493;28;19929;-83
2021/07/15 11:22:59;;;;;;;4.47;3.58;;;21.80;99.90;;;;;;5029394;28;21779;-83
2021/07/15 11:25:31;;;;;;;5.53;4.25;;;21.80;99.90;;;;;;5026406;28;20391;-83
2021/07/15 11:28:10;;;;;;;4.68;3.55;;;21.70;99.90;;;;;;5025851;28;20049;-83
2021/07/15 11:30:37;;;;;;;4.82;3.35;;;21.80;99.90;;;;;;5008987;28;20053;-84
2021/07/15 11:33:19;;;;;;;4.40;3.00;;;21.90;99.90;;;;;;5028149;28;20096;-83
2021/07/15 11:35:53;;;;;;;5.88;3.28;;;21.90;99.90;;;;;;5011374;28;20044;-85
2021/07/15 11:38:26;;;;;;;4.38;3.22;;;21.90;99.90;;;;;;4998058;28;20073;-83
2021/07/15 11:40:59;;;;;;;3.97;3.35;;;22.00;99.90;;;;;;5028977;28;20049;-84
2021/07/15 11:43:31;;;;;;;6.78;3.90;;;22.10;99.90;;;;;;5009112;28;20064;-84
2021/07/15 11:46:08;;;;;;;6.10;3.67;;;22.10;99.90;;;;;;5015767;28;20053;-84
2021/07/15 11:48:51;;;;;;;6.30;3.83;;;21.90;99.90;;;;;;5029361;28;20041;-83
2021/07/15 11:51:29;;;;;;;5.78;4.00;;;22.00;99.90;;;;;;5010050;28;20068;-84
2021/07/15 11:54:35;;;;;;;4.45;3.63;;;22.00;99.90;;;;;;5015448;28;20053;-83
2021/07/15 11:57:11;;;;;;;5.53;3.70;;;22.00;99.90;;;;;;5019626;28;20057;-84
2021/07/15 11:59:47;;;;;;;5.53;3.33;;;22.10;99.90;;;;;;5021056;28;20478;-84
2021/07/15 12:02:36;;;;;;;4.63;3.65;;;22.10;99.90;;;;;;5025835;28;20041;-83
2021/07/15 12:05:35;;;;;;;4.38;3.42;;;22.20;99.90;;;;;;5011643;28;20049;-84
2021/07/15 12:08:13;;;;;;;5.95;3.83;;;22.30;99.90;;;;;;5024048;28;20074;-84
2021/07/15 12:10:46;;;;;;;4.00;3.50;;;22.20;99.90;;;;;;5035443;28;20057;-83
2021/07/15 12:13:15;;;;;;;5.90;3.40;;;22.30;99.90;;;;;;5007086;28;20048;-83
2021/07/15 12:15:45;;;;;;;4.55;3.20;;;22.30;99.90;;;;;;5029501;28;20139;-83
2021/07/15 12:18:16;;;;;;;4.88;3.75;;;22.40;99.90;;;;;;5015327;28;20041;-83
2021/07/15 12:20:51;;;;;;;5.32;2.83;;;22.60;99.90;;;;;;5023126;28;20041;-83
2021/07/15 12:23:23;;;;;;;4.07;3.65;;;22.80;99.90;;;;;;5028036;28;20415;-83
2021/07/15 12:25:53;;;;;;;5.30;3.45;;;22.90;99.90;;;;;;5004930;28;20050;-83
2021/07/15 12:28:26;;;;;;;5.20;3.53;;;23.10;99.90;;;;;;5007534;28;20140;-84
2021/07/15 12:31:03;;;;;;;5.65;3.17;;;23.20;99.90;;;;;;5023271;28;20059;-84
2021/07/15 12:33:48;;;;;;;6.20;3.40;;;23.40;99.90;;;;;;5012819;28;20046;-84
2021/07/15 12:36:25;;;;;;;5.30;3.15;;;23.70;99.90;;;;;;5003969;28;20430;-84
2021/07/15 12:38:56;;;;;;;5.57;3.58;;;23.70;99.90;;;;;;5029820;28;20403;-84
2021/07/15 12:41:25;;;;;;;6.45;3.58;;;23.70;99.90;;;;;;5009642;28;20056;-84
2021/07/15 12:43:54;;;;;;;6.00;3.30;;;23.50;99.90;;;;;;5033420;28;20496;-84
2021/07/15 12:46:22;;;;;;;5.13;3.70;;;23.70;99.90;;;;;;5033136;28;20045;-84
2021/07/15 12:48:55;;;;;;;5.55;3.40;;;23.70;99.90;;;;;;5033344;28;20061;-84
2021/07/15 12:51:28;;;;;;;5.95;3.00;;;23.80;99.90;;;;;;5008532;28;20041;-84
2021/07/15 12:53:55;;;;;;;3.58;3.17;;;23.70;99.90;;;;;;5015044;28;20522;-84
2021/07/15 12:56:25;;;;;;;4.60;3.15;;;23.70;99.90;;;;;;5014315;28;20125;-84
2021/07/15 12:59:03;;;;;;;5.28;3.60;;;23.70;99.90;;;;;;5015802;28;20131;-84
2021/07/15 13:01:37;;;;;;;3.97;3.25;;;23.50;99.90;;;;;;5026832;28;20565;-83